首页
METAR-TAF:

METAR-TAF

机场 :

杜拜, 阿拉伯联合酋长国

迪拜国际机场

纬度: 25-15-10N, 经度: 055-21-52E, 海拔: 8米

当前天气观测

该预报发布于40分钟前的01:00 UTC
风速3节,风向南转南东
温度 17°C
湿度 72%
气压 1016 hPa
能见度10公里或以上
1500米以下无云,无积雨云

METAR: OMDB 190100Z 15003KT CAVOK 17/12 Q1016 NOSIG

时间: 05:40 (01:40 UTC)

预报

该预报发布于2小时和48分钟前的22:52 UTC
预报有效从19日的 00点(UTC)到 20日的 06点(UTC)
风速5节,风向东南
能見度: 8000
几率 30%
从 19日的 01点(UTC)到 19日的 05点(UTC)
能見度: 4000
成为
从 19日的 09点(UTC)到 19日的 11点(UTC)
风速10节,风向
成为
从 19日的 15点(UTC)到 19日的 17点(UTC)
风速5节,风向东转东北
几率 30%
从 20日的 00点(UTC)到 20日的 05点(UTC)
能見度: 3000
轻雾

TAF: OMDB 182252Z 1900/2006 14005KT 8000 NSC PROB30 1901/1905 4000 HZ BECMG 1909/1911 35010KT BECMG 1915/1917 06005KT PROB30 2000/2005 3000 BR

超过4000个机场的气象观测和天气预报(METAR&TAF报告)。

可查询的气象台以黄色和红色小点在地图上表示。

将鼠标移到小点上方,可查看气象台名称。

然后点击查看天气观测和预报。

如需切换地图:点击带黑十字的绿色按钮放大地图;点击带横线的绿色按钮缩小地图;或者点击绿色箭头查看邻近地区的地图。


METAR-TAF: